San Diego, CA

9:07 PM PDT on October 30, 2014 (GMT -0700)
Scripps Ranch Legacy | Change Station
CLOSE
Current Station
Personal Weather Station
Location: San Diego, CA
Elevation: 785 ft
Nearby Weather Stations

Elev 785 ft 32.93 °N, 117.06 °W | Updated 4 minutes ago

Clear
Clear
64.1 °F
Feels Like 64.1 °F
N
0.0
Wind Variable Wind from West
Gusts 3.0 mph

Today
High -- | Low -- °F
--% Chance of Precip.
Yesterday
High -- | Low -- °F
Precip. -- in
7:04 AM 5:58 PM
Waxing Crescent, 51% visible
Pressure 29.96 in
Visibility 10.0 miles
Clouds Few 1500 ft
Scattered Clouds 20000 ft
Dew Point 62 °F
Humidity 93%
Rainfall 0.00 in
Snow Depth Not available.
UV 0 out of 12
Pollen 3.50 out of 12
Air Quality Not available.
Flu Activity Not available.
METAR KNKX 310355Z 26005KT 10SM FEW015 SCT200 18/16 A2997 RMK AO2 SLP145 T01830156 $

More Conditions Fewer Conditions

Pressure 29.96 in
Visibility 10.0 miles
Clouds Few 1500 ft
Scattered Clouds 20000 ft
Dew Point 62 °F
Humidity 93%
Rainfall 0.00 in
Snow Depth Not available.
UV 0 out of 12
Pollen 3.50 out of 12
Air Quality Not available.
Flu Activity Not available.
METAR KNKX 310355Z 26005KT 10SM FEW015 SCT200 18/16 A2997 RMK AO2 SLP145 T01830156 $

More Conditions Fewer Conditions

10-Day Weather Forecast

Almanac

Astronomy

Oct. 30, 2014 Rise Set
Actual Time
Civil Twilight
Nautical Twilight
Astronomical Twilight
Moon
Length of Visible Light
Length of Day
Tomorrow will be .
, % of the Moon is Illuminated

Today's Extremes

State Highs State Lows

Community

WunderPhotos

Upload Photos

1,766,563 photos uploaded!

WunderBlogs® & News

Nearby

Air Quality

  Air Quality AQ Index Pollutant
Not available.

Snow Depth

Station Depth Elevation

Earthquake Activity

City Distance Mag. Time & Date
Minimum magnitude displayed is 2.5.

Coastal Water Temperatures

Place Temperature

Nearby Weather Stations